Time;durP1;ratioP1;P1;durP2;ratioP2;P2;SDS_P1;SDS_P2;PMS_P1;PMS_P2;Temp;Humidity;BMP_temperature;BMP_pressure;BME280_temperature;BME280_humidity;BME280_pressure;Samples;Min_cycle;Max_cycle;Signal;HPM_P1;HPM_P2
2023/06/07 00:00:08;;;;;;;6.55;3.28;;;17.70;93.60;;;;;;5074087;28;20115;-81
2023/06/07 00:02:34;;;;;;;6.72;3.67;;;17.70;93.40;;;;;;5073649;28;20475;-80
2023/06/07 00:04:59;;;;;;;7.38;3.75;;;17.70;93.50;;;;;;5071528;28;20024;-81
2023/06/07 00:07:25;;;;;;;8.20;4.20;;;17.60;93.60;;;;;;5072179;28;20027;-82
2023/06/07 00:09:51;;;;;;;6.45;3.97;;;17.50;93.60;;;;;;5056957;28;20035;-81
2023/06/07 00:12:16;;;;;;;9.02;4.63;;;17.50;93.70;;;;;;5072130;28;20108;-80
2023/06/07 00:14:43;;;;;;;7.20;4.07;;;17.40;93.70;;;;;;5063718;28;20047;-81
2023/06/07 00:17:09;;;;;;;7.32;4.00;;;17.30;93.80;;;;;;5055572;28;20016;-80
2023/06/07 00:19:35;;;;;;;6.85;3.95;;;17.30;93.90;;;;;;5073471;28;20021;-80
2023/06/07 00:22:02;;;;;;;8.52;4.47;;;17.20;93.90;;;;;;5055649;28;20028;-80
2023/06/07 00:24:27;;;;;;;7.28;3.60;;;17.20;94.00;;;;;;5056226;28;20016;-80
2023/06/07 00:26:53;;;;;;;7.40;4.00;;;17.20;94.10;;;;;;5062306;28;20084;-80
2023/06/07 00:29:19;;;;;;;7.53;4.28;;;17.10;94.10;;;;;;5058487;28;20024;-80
2023/06/07 00:31:44;;;;;;;7.65;3.63;;;17.00;94.10;;;;;;5059874;28;20073;-80
2023/06/07 00:34:10;;;;;;;6.80;3.70;;;17.00;94.20;;;;;;5072034;28;20530;-81
2023/06/07 00:36:36;;;;;;;8.13;4.30;;;17.10;94.20;;;;;;5057069;28;20096;-80
2023/06/07 00:39:02;;;;;;;6.75;4.25;;;17.00;94.20;;;;;;5057244;28;20036;-81
2023/06/07 00:41:28;;;;;;;7.95;4.18;;;16.90;94.30;;;;;;5062495;28;20031;-79
2023/06/07 00:43:54;;;;;;;6.07;3.70;;;16.80;94.40;;;;;;5062562;28;20028;-81
2023/06/07 00:46:22;;;;;;;6.18;3.80;;;16.80;94.40;;;;;;5058379;28;20135;-80
2023/06/07 00:48:48;;;;;;;5.40;3.38;;;16.90;94.30;;;;;;5056269;28;20031;-80
2023/06/07 00:51:15;;;;;;;6.70;3.92;;;17.00;94.30;;;;;;5072666;28;20033;-81
2023/06/07 00:53:42;;;;;;;8.52;4.00;;;17.00;94.30;;;;;;5073987;28;20066;-81
2023/06/07 00:56:08;;;;;;;6.80;3.63;;;16.90;94.30;;;;;;5057153;28;20489;-80
2023/06/07 00:58:34;;;;;;;5.90;3.75;;;16.90;94.40;;;;;;5058092;28;20131;-82
2023/06/07 01:01:01;;;;;;;8.60;4.13;;;16.80;94.40;;;;;;5073206;28;20390;-81
2023/06/07 01:03:29;;;;;;;5.78;3.60;;;16.80;94.60;;;;;;5072274;28;20023;-81
2023/06/07 01:05:54;;;;;;;8.13;3.80;;;16.70;94.70;;;;;;5072276;28;20031;-81
2023/06/07 01:08:21;;;;;;;6.68;3.70;;;16.60;94.70;;;;;;5072479;28;20024;-82
2023/06/07 01:10:48;;;;;;;6.70;3.60;;;16.60;94.70;;;;;;5060861;28;20021;-81
2023/06/07 01:13:16;;;;;;;7.93;3.42;;;16.70;94.70;;;;;;5074044;28;20035;-80
2023/06/07 01:15:42;;;;;;;7.05;3.30;;;16.60;94.70;;;;;;5058841;28;20036;-80
2023/06/07 01:18:09;;;;;;;6.38;3.72;;;16.60;94.70;;;;;;5072800;28;20024;-81
2023/06/07 01:20:36;;;;;;;6.00;3.45;;;16.70;94.70;;;;;;5055032;28;20477;-80
2023/06/07 01:23:05;;;;;;;7.72;3.30;;;16.70;94.70;;;;;;5056816;28;20058;-80
2023/06/07 01:25:31;;;;;;;7.80;3.67;;;16.60;94.70;;;;;;5075858;28;20033;-81
2023/06/07 01:28:00;;;;;;;5.40;3.53;;;16.60;94.80;;;;;;5064939;28;20073;-81
2023/06/07 01:30:31;;;;;;;6.90;3.47;;;16.50;94.90;;;;;;5078387;28;20172;-80
2023/06/07 01:32:58;;;;;;;7.70;3.78;;;16.50;95.00;;;;;;5075415;28;20635;-80
2023/06/07 01:35:25;;;;;;;8.07;3.83;;;16.50;95.00;;;;;;5059908;28;20038;-81
2023/06/07 01:37:53;;;;;;;10.18;3.90;;;16.50;95.00;;;;;;5064630;28;20036;-81
2023/06/07 01:40:21;;;;;;;7.90;3.80;;;16.50;94.90;;;;;;5060629;28;20432;-80
2023/06/07 01:42:47;;;;;;;7.32;3.40;;;16.50;94.90;;;;;;5076556;28;20024;-80
2023/06/07 01:45:13;;;;;;;5.55;3.42;;;16.50;95.00;;;;;;5078057;28;20735;-82
2023/06/07 01:47:39;;;;;;;6.88;3.70;;;16.40;95.00;;;;;;5075410;28;20024;-80
2023/06/07 01:50:06;;;;;;;6.40;3.53;;;16.30;95.10;;;;;;5074538;28;20343;-80
2023/06/07 01:52:32;;;;;;;6.15;3.05;;;16.40;95.20;;;;;;5075916;28;20036;-80
2023/06/07 01:54:58;;;;;;;6.93;3.65;;;16.30;95.20;;;;;;5059649;28;20035;-80
2023/06/07 01:57:34;;;;;;;7.63;3.72;;;16.30;95.20;;;;;;5075196;28;20093;-82
2023/06/07 02:00:15;;;;;;;6.95;3.17;;;16.30;95.30;;;;;;5065738;28;20028;-80
2023/06/07 02:02:53;;;;;;;6.32;3.47;;;16.30;95.20;;;;;;5074971;28;20032;-80
2023/06/07 02:05:25;;;;;;;6.25;3.58;;;16.30;95.20;;;;;;5074657;28;20048;-80
2023/06/07 02:07:53;;;;;;;7.20;3.17;;;16.30;95.20;;;;;;5075483;28;20059;-81
2023/06/07 02:10:26;;;;;;;7.68;4.07;;;16.30;95.20;;;;;;5059267;28;20031;-82
2023/06/07 02:12:53;;;;;;;5.85;2.88;;;16.30;95.30;;;;;;5075709;28;20040;-80
2023/06/07 02:15:20;;;;;;;7.40;3.47;;;16.20;95.30;;;;;;5064884;28;20424;-81
2023/06/07 02:18:00;;;;;;;5.65;3.65;;;16.20;95.40;;;;;;5060131;28;20738;-82
2023/06/07 02:20:30;;;;;;;6.50;3.17;;;16.20;95.50;;;;;;5075191;28;20591;-81
2023/06/07 02:22:57;;;;;;;6.18;3.28;;;16.20;95.50;;;;;;5074579;28;20041;-80
2023/06/07 02:25:23;;;;;;;9.27;3.00;;;16.20;95.40;;;;;;5076483;28;20113;-81
2023/06/07 02:27:49;;;;;;;6.03;2.88;;;16.30;95.30;;;;;;5060400;28;20032;-81
2023/06/07 02:30:15;;;;;;;6.75;3.05;;;16.30;95.30;;;;;;5061466;28;20026;-81
2023/06/07 02:32:45;;;;;;;6.28;3.20;;;16.20;95.40;;;;;;5065621;28;20024;-81
2023/06/07 02:35:11;;;;;;;6.72;3.88;;;16.10;95.50;;;;;;5067024;28;20375;-82
2023/06/07 02:37:37;;;;;;;5.72;3.03;;;16.10;95.50;;;;;;5074057;28;20039;-79
2023/06/07 02:40:08;;;;;;;5.25;3.10;;;16.00;95.60;;;;;;5059397;28;20025;-79
2023/06/07 02:42:35;;;;;;;5.63;3.20;;;16.00;95.50;;;;;;5075740;28;20962;-81
2023/06/07 02:45:02;;;;;;;4.65;2.75;;;16.00;95.60;;;;;;5063792;28;20249;-81
2023/06/07 02:47:28;;;;;;;6.45;3.40;;;15.90;95.60;;;;;;5075253;28;20024;-80
2023/06/07 02:49:54;;;;;;;7.30;3.90;;;15.90;95.70;;;;;;5057683;28;20028;-79
2023/06/07 02:52:20;;;;;;;5.63;3.08;;;15.90;95.70;;;;;;5063300;28;20017;-80
2023/06/07 02:54:45;;;;;;;6.10;3.33;;;15.80;95.80;;;;;;5057650;28;20106;-80
2023/06/07 02:57:11;;;;;;;6.15;3.42;;;15.80;96.00;;;;;;5075622;28;20755;-81
2023/06/07 02:59:39;;;;;;;8.25;3.25;;;15.70;95.80;;;;;;5077048;28;20112;-80
2023/06/07 03:02:05;;;;;;;5.88;3.47;;;15.70;95.90;;;;;;5064617;28;20115;-81
2023/06/07 03:04:31;;;;;;;5.32;3.17;;;15.60;96.00;;;;;;5058507;28;20098;-79
2023/06/07 03:06:58;;;;;;;5.72;3.20;;;15.60;96.00;;;;;;5074065;28;20036;-80
2023/06/07 03:09:24;;;;;;;7.00;3.17;;;15.60;96.10;;;;;;5059372;28;20077;-80
2023/06/07 03:11:50;;;;;;;6.53;3.38;;;15.50;96.10;;;;;;5075191;28;20032;-81
2023/06/07 03:14:19;;;;;;;6.13;3.22;;;15.50;96.10;;;;;;5062237;28;20351;-80
2023/06/07 03:16:48;;;;;;;8.15;4.10;;;15.50;96.10;;;;;;5074842;28;20513;-80
2023/06/07 03:19:14;;;;;;;5.88;3.75;;;15.50;96.20;;;;;;5074403;28;20025;-81
2023/06/07 03:21:44;;;;;;;7.60;3.72;;;15.40;96.30;;;;;;5058002;28;20032;-81
2023/06/07 03:24:13;;;;;;;7.57;3.65;;;15.40;96.40;;;;;;5059556;28;20043;-82
2023/06/07 03:26:39;;;;;;;6.53;3.20;;;15.40;96.40;;;;;;5059885;28;20020;-81
2023/06/07 03:29:05;;;;;;;8.05;3.50;;;15.40;96.40;;;;;;5074905;28;20112;-81
2023/06/07 03:31:31;;;;;;;8.85;3.63;;;15.40;96.40;;;;;;5073908;28;20111;-82
2023/06/07 03:33:57;;;;;;;6.60;3.50;;;15.30;96.50;;;;;;5057964;28;20039;-81
2023/06/07 03:36:25;;;;;;;8.50;3.58;;;15.30;96.50;;;;;;5056306;28;20020;-80
2023/06/07 03:38:52;;;;;;;8.05;3.58;;;15.30;96.50;;;;;;5072871;28;20040;-81
2023/06/07 03:41:18;;;;;;;8.02;3.58;;;15.30;96.50;;;;;;5074302;28;20031;-82
2023/06/07 03:43:43;;;;;;;6.78;3.30;;;15.30;96.50;;;;;;5076272;28;20032;-81
2023/06/07 03:46:09;;;;;;;6.45;3.72;;;15.40;96.50;;;;;;5073681;28;20060;-80
2023/06/07 03:48:36;;;;;;;6.57;3.40;;;15.30;96.60;;;;;;5057605;28;20070;-83
2023/06/07 03:51:02;;;;;;;6.90;3.42;;;15.30;96.60;;;;;;5072944;28;20404;-80
2023/06/07 03:53:27;;;;;;;7.22;3.28;;;15.40;96.70;;;;;;5057863;28;20106;-81
2023/06/07 03:55:53;;;;;;;7.93;2.97;;;15.30;96.60;;;;;;5058486;28;20071;-80
2023/06/07 03:58:19;;;;;;;6.18;3.13;;;15.30;96.70;;;;;;5059309;28;20044;-81
2023/06/07 04:00:47;;;;;;;5.20;3.28;;;15.30;96.70;;;;;;5058551;28;20435;-81
2023/06/07 04:03:13;;;;;;;7.10;2.90;;;15.20;96.80;;;;;;5074136;28;20023;-81
2023/06/07 04:05:38;;;;;;;6.03;3.03;;;15.20;96.80;;;;;;5073756;28;20035;-80
2023/06/07 04:08:05;;;;;;;6.82;3.67;;;15.20;96.80;;;;;;5072252;28;20511;-81
2023/06/07 04:10:31;;;;;;;5.40;2.75;;;15.10;96.90;;;;;;5059289;28;20032;-81
2023/06/07 04:12:57;;;;;;;6.32;2.92;;;15.10;96.90;;;;;;5073769;28;20035;-81
2023/06/07 04:15:22;;;;;;;6.15;3.15;;;15.00;97.00;;;;;;5058987;28;20523;-80
2023/06/07 04:17:48;;;;;;;7.15;3.00;;;15.10;97.00;;;;;;5073032;28;20397;-82
2023/06/07 04:20:14;;;;;;;4.70;2.92;;;15.10;97.00;;;;;;5073158;28;20024;-80
2023/06/07 04:22:41;;;;;;;8.60;3.65;;;15.10;97.00;;;;;;5072992;28;20473;-81
2023/06/07 04:25:07;;;;;;;8.75;3.38;;;15.10;97.00;;;;;;5058543;28;20382;-82
2023/06/07 04:27:34;;;;;;;9.15;3.88;;;15.20;97.00;;;;;;5072732;28;20028;-81
2023/06/07 04:30:02;;;;;;;7.53;3.50;;;15.20;97.00;;;;;;5065070;28;20133;-81
2023/06/07 04:32:28;;;;;;;8.02;3.22;;;15.10;97.10;;;;;;5057993;28;20492;-81
2023/06/07 04:34:55;;;;;;;5.00;2.97;;;15.10;97.10;;;;;;5057145;28;20024;-80
2023/06/07 04:37:20;;;;;;;6.20;2.58;;;15.10;97.00;;;;;;5061958;28;20705;-81
2023/06/07 04:39:48;;;;;;;5.05;2.60;;;15.10;97.00;;;;;;5073307;28;20032;-81
2023/06/07 04:42:16;;;;;;;8.23;3.75;;;15.20;97.00;;;;;;5059433;28;20103;-81
2023/06/07 04:44:42;;;;;;;5.88;2.65;;;15.20;97.10;;;;;;5072627;28;20028;-81
2023/06/07 04:47:09;;;;;;;7.20;3.95;;;15.10;97.00;;;;;;5055719;28;20031;-81
2023/06/07 04:49:35;;;;;;;5.88;2.80;;;15.10;97.00;;;;;;5064367;28;20480;-79
2023/06/07 04:52:05;;;;;;;7.70;3.05;;;15.10;97.10;;;;;;5057000;28;20048;-80
2023/06/07 04:54:32;;;;;;;9.55;3.05;;;15.10;97.10;;;;;;5061952;28;20032;-80
2023/06/07 04:56:58;;;;;;;8.52;3.38;;;15.10;97.20;;;;;;5072386;28;20542;-81
2023/06/07 04:59:24;;;;;;;8.27;2.90;;;15.10;97.20;;;;;;5071052;28;20043;-81
2023/06/07 05:01:50;;;;;;;5.97;3.03;;;15.10;97.20;;;;;;5069565;28;20449;-80
2023/06/07 05:04:19;;;;;;;8.35;3.50;;;15.20;97.50;;;;;;5055781;28;20032;-80
2023/06/07 05:06:45;;;;;;;5.65;2.92;;;15.10;97.30;;;;;;5061754;28;20020;-80
2023/06/07 05:09:11;;;;;;;6.47;2.75;;;15.20;97.30;;;;;;5072894;28;20024;-80
2023/06/07 05:11:36;;;;;;;9.35;4.10;;;15.20;97.30;;;;;;5073920;28;20078;-80
2023/06/07 05:14:02;;;;;;;8.18;3.70;;;15.20;97.30;;;;;;5056117;28;20460;-81
2023/06/07 05:16:30;;;;;;;5.60;2.58;;;15.20;97.30;;;;;;5072337;28;20053;-80
2023/06/07 05:18:56;;;;;;;7.70;3.30;;;15.30;97.40;;;;;;5061289;28;20058;-80
2023/06/07 05:21:22;;;;;;;7.43;3.30;;;15.30;97.30;;;;;;5072468;28;20021;-80
2023/06/07 05:23:47;;;;;;;6.68;3.10;;;15.40;97.30;;;;;;5063852;28;20048;-80
2023/06/07 05:26:13;;;;;;;9.32;3.45;;;15.50;97.30;;;;;;5058342;28;20016;-81
2023/06/07 05:28:38;;;;;;;9.45;3.40;;;15.50;97.20;;;;;;5071414;28;20436;-80
2023/06/07 05:31:04;;;;;;;6.53;3.50;;;15.60;97.30;;;;;;5055292;28;20025;-80
2023/06/07 05:33:30;;;;;;;6.40;2.78;;;15.60;97.30;;;;;;5056851;28;20020;-80
2023/06/07 05:35:56;;;;;;;10.85;3.65;;;15.60;97.30;;;;;;5056268;28;20025;-80
2023/06/07 05:38:22;;;;;;;7.65;3.17;;;15.60;97.40;;;;;;5073137;28;20074;-80
2023/06/07 05:40:48;;;;;;;8.90;3.33;;;15.60;97.30;;;;;;5072742;28;20040;-79
2023/06/07 05:43:13;;;;;;;5.75;2.85;;;15.60;97.40;;;;;;5072333;28;20032;-80
2023/06/07 05:45:41;;;;;;;6.00;2.92;;;15.60;97.40;;;;;;5056908;28;20626;-80
2023/06/07 05:48:07;;;;;;;6.90;3.10;;;15.60;97.50;;;;;;5056711;28;20028;-79
2023/06/07 05:50:32;;;;;;;7.22;3.15;;;15.70;97.50;;;;;;5073074;28;21103;-80
2023/06/07 05:52:59;;;;;;;6.80;2.80;;;15.70;97.50;;;;;;5071692;28;20039;-81
2023/06/07 05:55:25;;;;;;;5.53;3.20;;;15.70;97.50;;;;;;5063019;28;20020;-80
2023/06/07 05:57:51;;;;;;;7.65;3.08;;;15.80;97.50;;;;;;5071971;28;20079;-80
2023/06/07 06:00:17;;;;;;;7.78;2.90;;;15.80;97.50;;;;;;5072187;28;20064;-80
2023/06/07 06:02:45;;;;;;;8.40;3.15;;;15.90;97.50;;;;;;5072331;28;20028;-80
2023/06/07 06:05:11;;;;;;;6.25;2.85;;;15.90;97.40;;;;;;5062080;28;20029;-80
2023/06/07 06:07:37;;;;;;;6.78;2.88;;;15.90;97.40;;;;;;5069180;28;20031;-80
2023/06/07 06:10:04;;;;;;;8.13;3.20;;;16.00;97.40;;;;;;5060018;28;20020;-80
2023/06/07 06:12:30;;;;;;;6.43;2.72;;;16.00;97.40;;;;;;5059099;28;20030;-80
2023/06/07 06:14:56;;;;;;;6.80;3.22;;;16.00;97.40;;;;;;5071083;28;20032;-80
2023/06/07 06:17:22;;;;;;;5.97;2.90;;;16.00;97.40;;;;;;5071541;28;20046;-81
2023/06/07 06:19:48;;;;;;;7.53;3.13;;;16.10;97.40;;;;;;5055645;28;20059;-81
2023/06/07 06:22:13;;;;;;;7.32;2.85;;;16.10;97.40;;;;;;5062670;28;20171;-81
2023/06/07 06:24:39;;;;;;;6.65;2.80;;;16.20;97.40;;;;;;5073763;28;20120;-81
2023/06/07 06:27:06;;;;;;;8.75;3.10;;;16.20;97.30;;;;;;5074087;28;20036;-81
2023/06/07 06:29:33;;;;;;;10.00;3.65;;;16.20;97.40;;;;;;5072813;28;20116;-82
2023/06/07 06:32:00;;;;;;;7.53;3.45;;;16.30;97.40;;;;;;5063408;28;20032;-82
2023/06/07 06:34:26;;;;;;;10.50;4.03;;;16.40;97.40;;;;;;5066032;28;20027;-81
2023/06/07 06:36:51;;;;;;;8.55;3.42;;;16.40;97.40;;;;;;5054616;28;20040;-81
2023/06/07 06:39:17;;;;;;;7.60;2.78;;;16.40;97.30;;;;;;5074137;28;20119;-80
2023/06/07 06:41:44;;;;;;;7.18;3.53;;;16.50;97.30;;;;;;5064668;28;20124;-81
2023/06/07 06:44:09;;;;;;;10.43;3.20;;;16.40;97.30;;;;;;5073130;28;20038;-80
2023/06/07 06:46:35;;;;;;;11.38;3.90;;;16.30;97.30;;;;;;5073616;28;20024;-81
2023/06/07 06:49:01;;;;;;;9.95;4.40;;;16.30;97.40;;;;;;5056964;28;20335;-80
2023/06/07 06:51:26;;;;;;;8.32;3.95;;;16.20;97.40;;;;;;5063003;28;20043;-81
2023/06/07 06:53:52;;;;;;;9.75;3.63;;;16.20;97.50;;;;;;5074691;28;20478;-80
2023/06/07 06:56:17;;;;;;;7.68;3.47;;;16.20;97.50;;;;;;5074271;28;20078;-80
2023/06/07 06:58:43;;;;;;;8.57;3.20;;;16.30;97.40;;;;;;5072702;28;20041;-81
2023/06/07 07:01:12;;;;;;;10.55;3.35;;;16.40;97.40;;;;;;5057841;28;20029;-80
2023/06/07 07:03:38;;;;;;;7.82;3.03;;;16.40;97.30;;;;;;5072506;28;20028;-80
2023/06/07 07:06:03;;;;;;;7.85;3.30;;;16.50;97.40;;;;;;5056568;28;20467;-80
2023/06/07 07:08:29;;;;;;;5.55;3.05;;;16.50;97.30;;;;;;5075105;28;20043;-80
2023/06/07 07:10:55;;;;;;;9.02;3.17;;;16.60;97.30;;;;;;5074762;28;20016;-80
2023/06/07 07:13:20;;;;;;;8.30;3.67;;;16.60;97.30;;;;;;5045616;28;20110;-81
2023/06/07 07:15:46;;;;;;;8.70;3.60;;;16.70;97.30;;;;;;5072653;28;20436;-82
2023/06/07 07:18:11;;;;;;;7.57;3.28;;;16.70;97.30;;;;;;5072283;28;20101;-81
2023/06/07 07:20:38;;;;;;;7.75;4.07;;;16.70;97.30;;;;;;5071687;28;20251;-80
2023/06/07 07:23:03;;;;;;;8.85;3.92;;;16.80;97.40;;;;;;5070981;28;20052;-80
2023/06/07 07:25:29;;;;;;;8.80;3.63;;;16.80;97.40;;;;;;5061443;28;20028;-80
2023/06/07 07:27:55;;;;;;;6.95;3.22;;;16.90;97.40;;;;;;5071867;28;20073;-80
2023/06/07 07:30:20;;;;;;;6.32;3.17;;;16.90;97.40;;;;;;5062420;28;20498;-80
2023/06/07 07:32:46;;;;;;;9.25;3.75;;;16.90;97.40;;;;;;5057746;28;20549;-81
2023/06/07 07:35:11;;;;;;;6.85;3.60;;;16.90;97.40;;;;;;5072559;28;20032;-80
2023/06/07 07:37:39;;;;;;;8.05;2.90;;;16.90;97.40;;;;;;5062175;28;20066;-79
2023/06/07 07:40:06;;;;;;;9.02;3.33;;;16.90;97.40;;;;;;5057244;28;21057;-80
2023/06/07 07:42:32;;;;;;;9.13;3.47;;;17.00;97.40;;;;;;5072916;28;20030;-80
2023/06/07 07:44:57;;;;;;;8.60;3.45;;;17.10;97.30;;;;;;5072080;28;20512;-79
2023/06/07 07:47:23;;;;;;;7.05;3.10;;;17.20;97.30;;;;;;5071734;28;22295;-80
2023/06/07 07:49:48;;;;;;;7.90;3.40;;;17.30;97.50;;;;;;5055692;28;20222;-79
2023/06/07 07:52:14;;;;;;;5.78;3.13;;;17.40;97.30;;;;;;5073887;28;20099;-80
2023/06/07 07:54:39;;;;;;;6.93;3.45;;;17.50;97.30;;;;;;5074032;28;20372;-81
2023/06/07 07:57:06;;;;;;;10.10;3.85;;;17.70;97.20;;;;;;5072595;28;20918;-80
2023/06/07 07:59:31;;;;;;;8.75;3.42;;;17.80;97.10;;;;;;5072106;28;20066;-80
2023/06/07 08:01:57;;;;;;;5.78;2.63;;;18.00;97.10;;;;;;5055659;28;20021;-80
2023/06/07 08:04:23;;;;;;;8.48;3.00;;;18.10;97.00;;;;;;5071911;28;20028;-80
2023/06/07 08:06:48;;;;;;;5.65;3.10;;;18.20;96.90;;;;;;5071318;28;20104;-80
2023/06/07 08:09:14;;;;;;;6.10;2.60;;;18.20;96.90;;;;;;5072640;28;20119;-81
2023/06/07 08:11:39;;;;;;;6.03;2.95;;;18.20;96.90;;;;;;5062164;28;20024;-80
2023/06/07 08:14:05;;;;;;;8.27;3.35;;;18.20;96.90;;;;;;5072033;28;20315;-81
2023/06/07 08:16:31;;;;;;;6.80;2.97;;;18.30;96.90;;;;;;5072062;28;20021;-81
2023/06/07 08:18:59;;;;;;;4.93;2.75;;;18.30;96.80;;;;;;5073071;28;20044;-81
2023/06/07 08:21:25;;;;;;;5.63;2.88;;;18.40;96.80;;;;;;5069146;28;20024;-80
2023/06/07 08:23:54;;;;;;;5.47;2.90;;;18.50;96.70;;;;;;5057978;28;20048;-81
2023/06/07 08:26:19;;;;;;;6.25;2.63;;;18.50;96.70;;;;;;5055750;28;20469;-81
2023/06/07 08:28:45;;;;;;;4.93;2.72;;;18.70;96.60;;;;;;5071185;28;20066;-81
2023/06/07 08:31:11;;;;;;;7.85;3.30;;;18.80;96.60;;;;;;5072756;28;20028;-81
2023/06/07 08:33:37;;;;;;;6.85;2.90;;;18.90;96.30;;;;;;5061925;28;20487;-81
2023/06/07 08:36:03;;;;;;;6.25;2.72;;;18.90;96.30;;;;;;5056137;28;20016;-81
2023/06/07 08:38:29;;;;;;;6.00;2.95;;;18.90;96.30;;;;;;5058108;28;20050;-81
2023/06/07 08:40:55;;;;;;;7.55;3.10;;;18.90;96.20;;;;;;5055458;28;20016;-79
2023/06/07 08:43:21;;;;;;;5.78;2.70;;;19.10;96.50;;;;;;5072352;28;20028;-79
2023/06/07 08:45:49;;;;;;;6.10;2.67;;;19.20;96.20;;;;;;5054276;28;20028;-80
2023/06/07 08:48:16;;;;;;;5.47;2.53;;;19.30;96.10;;;;;;5055768;28;20598;-80
2023/06/07 08:50:45;;;;;;;6.55;3.03;;;19.40;96.00;;;;;;5072184;28;20024;-78
2023/06/07 08:53:19;;;;;;;4.85;2.55;;;19.40;95.90;;;;;;5072228;28;20069;-79
2023/06/07 08:55:45;;;;;;;5.70;3.08;;;19.50;95.80;;;;;;5072474;28;20031;-79
2023/06/07 08:58:13;;;;;;;7.93;2.97;;;19.50;95.70;;;;;;5055810;28;20043;-80
2023/06/07 09:00:39;;;;;;;4.80;2.42;;;19.50;95.80;;;;;;5073146;28;20027;-81
2023/06/07 09:03:06;;;;;;;4.78;2.30;;;19.60;95.80;;;;;;5059776;28;20090;-80
2023/06/07 09:05:32;;;;;;;4.10;2.15;;;19.80;95.70;;;;;;5072186;28;20043;-80
2023/06/07 09:07:57;;;;;;;5.25;2.70;;;19.90;95.70;;;;;;5057605;28;20047;-80
2023/06/07 09:10:23;;;;;;;5.45;2.67;;;20.10;95.50;;;;;;5071454;28;20028;-80
2023/06/07 09:12:48;;;;;;;5.95;2.92;;;20.30;95.40;;;;;;5054679;28;20021;-80
2023/06/07 09:15:19;;;;;;;6.93;3.00;;;20.40;95.20;;;;;;5071216;28;20234;-79
2023/06/07 09:17:52;;;;;;;4.85;2.70;;;20.50;95.10;;;;;;5071680;28;20032;-79
2023/06/07 09:20:22;;;;;;;;;;;20.60;95.10;;;;;;5061089;28;20045;-79
2023/06/07 09:23:11;;;;;;;7.78;3.20;;;20.60;95.10;;;;;;5072246;28;20003;-80
2023/06/07 09:25:39;;;;;;;6.00;2.78;;;20.70;95.10;;;;;;5055899;28;20076;-77
2023/06/07 09:28:10;;;;;;;3.85;2.15;;;20.70;95.10;;;;;;5070141;28;20036;-79
2023/06/07 09:30:56;;;;;;;5.15;2.42;;;20.90;95.00;;;;;;5071402;28;20028;-79
2023/06/07 09:33:29;;;;;;;5.93;2.35;;;21.00;95.00;;;;;;5070613;28;20020;-80
2023/06/07 09:36:04;;;;;;;6.30;2.72;;;21.10;94.90;;;;;;5057191;28;20027;-80
2023/06/07 09:38:29;;;;;;;6.63;2.67;;;21.00;94.80;;;;;;5070437;28;20055;-80
2023/06/07 09:40:58;;;;;;;6.20;2.67;;;21.00;94.70;;;;;;5070329;28;20052;-79
2023/06/07 09:43:25;;;;;;;4.57;2.40;;;21.00;94.80;;;;;;5069957;28;20031;-80
2023/06/07 09:45:54;;;;;;;5.68;2.70;;;21.00;94.80;;;;;;5071271;28;20107;-80
2023/06/07 09:48:19;;;;;;;6.38;2.50;;;21.00;94.70;;;;;;5075054;28;20052;-80
2023/06/07 09:50:58;;;;;;;4.85;2.40;;;21.00;94.80;;;;;;5060017;28;20166;-80
2023/06/07 09:53:24;;;;;;;5.88;2.53;;;21.00;94.80;;;;;;5074160;28;20047;-80
2023/06/07 09:55:50;;;;;;;5.10;3.08;;;20.80;94.90;;;;;;5064456;28;20112;-80
2023/06/07 09:58:23;;;;;;;6.28;3.55;;;20.80;94.90;;;;;;5075743;28;20032;-79
2023/06/07 10:00:49;;;;;;;6.95;3.53;;;20.70;95.10;;;;;;5073772;28;20044;-80
2023/06/07 10:03:15;;;;;;;6.97;3.92;;;20.50;95.00;;;;;;5065324;28;20047;-80
2023/06/07 10:05:43;;;;;;;6.05;3.78;;;20.40;95.20;;;;;;5060851;28;20453;-81
2023/06/07 10:08:10;;;;;;;5.40;3.58;;;20.40;95.40;;;;;;5066922;28;20025;-80
2023/06/07 10:10:40;;;;;;;7.13;3.58;;;20.30;95.60;;;;;;5073615;28;20066;-81
2023/06/07 10:13:05;;;;;;;5.72;3.47;;;20.20;95.70;;;;;;5062442;28;20764;-81
2023/06/07 10:15:33;;;;;;;6.65;3.60;;;20.20;95.80;;;;;;5064031;28;20037;-82
2023/06/07 10:18:11;;;;;;;6.13;3.42;;;20.10;96.00;;;;;;5064535;28;20036;-81
2023/06/07 10:20:44;;;;;;;7.18;3.65;;;20.10;96.30;;;;;;5073800;28;20708;-81
2023/06/07 10:23:18;;;;;;;5.68;3.20;;;20.10;96.60;;;;;;5055737;28;20047;-80
2023/06/07 10:25:52;;;;;;;5.80;3.67;;;20.10;96.60;;;;;;5056531;28;20024;-79
2023/06/07 10:28:35;;;;;;;5.72;3.35;;;20.20;96.70;;;;;;5072260;28;20056;-81
2023/06/07 10:31:09;;;;;;;;;;;20.40;96.60;;;;;;5058602;28;20123;-81
2023/06/07 10:33:36;;;;;;;5.93;3.03;;;20.40;96.50;;;;;;5074673;28;19912;-81
2023/06/07 10:36:02;;;;;;;4.55;2.65;;;20.80;96.60;;;;;;5057581;28;20024;-80
2023/06/07 10:38:32;;;;;;;5.57;2.78;;;21.60;96.40;;;;;;5057835;28;20033;-79
2023/06/07 10:41:00;;;;;;;5.97;3.03;;;22.30;95.80;;;;;;5062950;28;20024;-80
2023/06/07 10:43:28;;;;;;;5.43;3.58;;;23.00;95.40;;;;;;5057228;28;20028;-81
2023/06/07 10:46:21;;;;;;;4.82;3.30;;;23.40;94.90;;;;;;5057591;28;20504;-79
2023/06/07 10:48:47;;;;;;;5.18;2.60;;;23.60;94.70;;;;;;5060381;28;20071;-80
2023/06/07 10:51:13;;;;;;;5.30;2.67;;;23.60;94.70;;;;;;5070218;28;20577;-80
2023/06/07 10:53:49;;;;;;;5.93;2.90;;;23.70;94.50;;;;;;5070414;28;20024;-80
2023/06/07 10:56:31;;;;;;;4.35;2.70;;;24.20;94.20;;;;;;5071136;28;20029;-79
2023/06/07 10:59:14;;;;;;;5.35;2.60;;;24.60;94.10;;;;;;5056717;28;20044;-79
2023/06/07 11:01:40;;;;;;;5.18;2.50;;;25.00;93.70;;;;;;5057231;28;20085;-80
2023/06/07 11:04:05;;;;;;;4.70;2.25;;;25.20;93.40;;;;;;5068587;28;20159;-80
2023/06/07 11:06:34;;;;;;;5.32;2.50;;;25.20;93.30;;;;;;5069640;28;20095;-79
2023/06/07 11:09:19;;;;;;;5.18;2.78;;;25.00;93.10;;;;;;5058983;28;20032;-82
2023/06/07 11:11:45;;;;;;;4.22;2.33;;;24.70;93.00;;;;;;5048729;28;20478;-80
2023/06/07 11:14:12;;;;;;;4.82;2.30;;;24.40;93.10;;;;;;5070671;28;20031;-80
2023/06/07 11:16:39;;;;;;;4.15;1.90;;;24.20;93.10;;;;;;5058238;28;20028;-79
2023/06/07 11:19:10;;;;;;;2.97;1.92;;;24.10;93.10;;;;;;5052634;28;20047;-79
2023/06/07 11:21:58;;;;;;;3.83;2.00;;;24.00;93.10;;;;;;5067055;28;20021;-79
2023/06/07 11:24:24;;;;;;;3.97;2.13;;;23.90;93.10;;;;;;5052335;28;20047;-78
2023/06/07 11:26:50;;;;;;;4.45;2.10;;;23.80;93.00;;;;;;5070517;28;20024;-78
2023/06/07 11:29:17;;;;;;;3.40;2.10;;;23.90;92.90;;;;;;5069186;28;20081;-80
2023/06/07 11:31:58;;;;;;;3.88;2.28;;;24.00;92.90;;;;;;5054305;28;20101;-80
2023/06/07 11:34:26;;;;;;;6.00;2.38;;;24.10;92.50;;;;;;5071334;28;20143;-79
2023/06/07 11:37:05;;;;;;;3.65;2.00;;;24.20;92.40;;;;;;5069039;28;20056;-79
2023/06/07 11:39:34;;;;;;;4.55;2.05;;;24.40;92.40;;;;;;5056299;28;20401;-80
2023/06/07 11:42:01;;;;;;;2.95;1.63;;;24.40;92.30;;;;;;5055193;28;20063;-80
2023/06/07 11:44:28;;;;;;;4.50;2.20;;;24.50;92.30;;;;;;5059003;28;20470;-80
2023/06/07 11:46:55;;;;;;;3.20;2.03;;;24.50;92.30;;;;;;5052185;28;20032;-80
2023/06/07 11:49:23;;;;;;;3.78;1.70;;;24.60;92.30;;;;;;5067890;28;20024;-80
2023/06/07 11:51:49;;;;;;;3.08;1.90;;;24.70;92.20;;;;;;5057658;28;20082;-79
2023/06/07 11:54:14;;;;;;;3.28;1.80;;;24.70;92.30;;;;;;5070254;28;20036;-80
2023/06/07 11:56:43;;;;;;;5.22;2.00;;;24.70;92.20;;;;;;5069441;28;20155;-79
2023/06/07 11:59:10;;;;;;;5.43;2.15;;;24.70;92.20;;;;;;5070079;28;20221;-79
2023/06/07 12:01:39;;;;;;;2.95;1.80;;;24.60;92.20;;;;;;5057592;28;20487;-80
2023/06/07 12:04:06;;;;;;;3.80;1.90;;;24.70;92.20;;;;;;5060030;28;21077;-79
2023/06/07 12:06:33;;;;;;;3.90;1.83;;;24.70;92.20;;;;;;5066631;28;20065;-80
2023/06/07 12:08:58;;;;;;;4.22;2.30;;;24.80;92.10;;;;;;5056565;28;20032;-79
2023/06/07 12:11:24;;;;;;;6.28;2.15;;;24.80;91.90;;;;;;5057646;28;20028;-81
2023/06/07 12:13:53;;;;;;;4.63;2.08;;;24.90;91.90;;;;;;5056207;28;20547;-79
2023/06/07 12:16:22;;;;;;;5.95;2.28;;;24.90;91.80;;;;;;5072450;28;20019;-79
2023/06/07 12:18:48;;;;;;;4.40;2.42;;;25.00;91.90;;;;;;5069272;28;20036;-80
2023/06/07 12:21:16;;;;;;;4.53;2.13;;;25.00;91.90;;;;;;5060682;28;20463;-80
2023/06/07 12:23:53;;;;;;;4.15;2.45;;;25.00;92.00;;;;;;5060094;28;20136;-79
2023/06/07 12:26:28;;;;;;;4.65;2.25;;;25.10;92.00;;;;;;5058645;28;20036;-76
2023/06/07 12:28:54;;;;;;;5.57;2.25;;;25.00;92.00;;;;;;5071163;28;20035;-76
2023/06/07 12:31:20;;;;;;;5.53;2.45;;;25.10;92.10;;;;;;5060865;28;20024;-77
2023/06/07 12:33:54;;;;;;;5.13;2.63;;;25.10;92.00;;;;;;5070034;28;20029;-77
2023/06/07 12:36:20;;;;;;;4.78;2.58;;;25.20;91.90;;;;;;5053974;28;20151;-77
2023/06/07 12:38:46;;;;;;;4.60;2.33;;;25.20;92.00;;;;;;5057505;28;20044;-77
2023/06/07 12:41:11;;;;;;;4.45;2.80;;;25.30;91.90;;;;;;5071337;28;20028;-77
2023/06/07 12:43:37;;;;;;;5.00;2.75;;;25.50;91.80;;;;;;5071544;28;20033;-77
2023/06/07 12:46:02;;;;;;;5.80;2.85;;;25.70;91.70;;;;;;5059565;28;20537;-77
2023/06/07 12:48:28;;;;;;;5.05;2.83;;;26.10;91.70;;;;;;5053152;28;20036;-77